createdAt,value
2023-05-25T00:01:11.088Z,24.17
2023-05-25T00:03:40.329Z,21.95
2023-05-25T00:06:07.946Z,25.40
2023-05-25T00:08:35.279Z,27.77
2023-05-25T00:11:04.072Z,28.25
2023-05-25T00:13:31.415Z,23.88
2023-05-25T00:15:58.777Z,22.90
2023-05-25T00:18:26.944Z,27.60
2023-05-25T00:20:58.292Z,30.10
2023-05-25T00:23:25.646Z,29.60
2023-05-25T00:25:53.018Z,27.15
2023-05-25T00:28:21.678Z,24.63
2023-05-25T00:30:49.513Z,27.40
2023-05-25T00:33:17.231Z,24.52
2023-05-25T00:35:45.128Z,27.27
2023-05-25T00:38:13.871Z,24.65
2023-05-25T00:40:41.822Z,26.45
2023-05-25T00:43:09.237Z,27.52
2023-05-25T00:45:37.918Z,23.92
2023-05-25T00:48:05.817Z,31.13
2023-05-25T00:50:37.653Z,24.80
2023-05-25T00:53:05.090Z,30.08
2023-05-25T00:55:34.439Z,25.73
2023-05-25T00:58:04.304Z,26.10
2023-05-25T01:00:33.474Z,26.75
2023-05-25T01:03:03.479Z,26.55
2023-05-25T01:05:32.126Z,29.58
2023-05-25T01:08:01.694Z,25.10
2023-05-25T01:10:33.044Z,32.25
2023-05-25T01:13:00.627Z,26.33
2023-05-25T01:15:27.958Z,30.83
2023-05-25T01:17:59.188Z,32.17
2023-05-25T01:20:29.730Z,29.40
2023-05-25T01:23:00.836Z,25.90
2023-05-25T01:25:30.016Z,23.58
2023-05-25T01:27:59.961Z,26.38
2023-05-25T01:30:27.699Z,28.83
2023-05-25T01:32:55.276Z,29.70
2023-05-25T01:35:23.011Z,25.15
2023-05-25T01:37:51.083Z,25.67
2023-05-25T01:40:19.825Z,23.90
2023-05-25T01:42:47.138Z,23.20
2023-05-25T01:45:15.262Z,27.15
2023-05-25T01:47:46.648Z,27.15
2023-05-25T01:50:19.427Z,24.15
2023-05-25T01:52:49.725Z,27.90
2023-05-25T01:55:17.853Z,26.30
2023-05-25T01:57:49.098Z,28.13
2023-05-25T02:00:17.907Z,27.58
2023-05-25T02:02:46.461Z,31.40
2023-05-25T02:05:14.280Z,30.33
2023-05-25T02:07:41.646Z,27.95
2023-05-25T02:10:09.392Z,24.52
2023-05-25T02:12:36.762Z,28.40
2023-05-25T02:15:06.184Z,29.40
2023-05-25T02:17:33.579Z,39.05
2023-05-25T02:20:01.212Z,34.97
2023-05-25T02:22:28.581Z,24.80
2023-05-25T02:24:55.916Z,29.98
2023-05-25T02:27:23.309Z,33.70
2023-05-25T02:29:50.783Z,41.42
2023-05-25T02:32:19.596Z,25.20
2023-05-25T02:34:47.692Z,28.80
2023-05-25T02:37:15.019Z,30.15
2023-05-25T02:39:42.366Z,29.05
2023-05-25T02:42:09.681Z,28.98
2023-05-25T02:44:37.046Z,32.03
2023-05-25T02:47:04.579Z,28.58
2023-05-25T02:49:34.290Z,33.28
2023-05-25T02:52:01.630Z,24.88
2023-05-25T02:54:28.959Z,25.42
2023-05-25T02:56:56.615Z,26.60
2023-05-25T02:59:24.859Z,34.80
2023-05-25T03:01:52.239Z,29.98
2023-05-25T03:04:20.642Z,31.30
2023-05-25T03:06:49.390Z,27.83
2023-05-25T03:09:16.984Z,32.83
2023-05-25T03:11:44.403Z,32.47
2023-05-25T03:14:13.100Z,22.80
2023-05-25T03:16:40.480Z,37.95
2023-05-25T03:19:08.402Z,25.48
2023-05-25T03:21:35.787Z,25.67
2023-05-25T03:24:04.616Z,26.60
2023-05-25T03:26:32.126Z,27.50
2023-05-25T03:28:59.521Z,30.13
2023-05-25T03:31:26.934Z,27.35
2023-05-25T03:33:54.296Z,27.02
2023-05-25T03:36:22.196Z,31.92
2023-05-25T03:38:49.724Z,36.45
2023-05-25T03:41:18.382Z,28.73
2023-05-25T03:43:45.742Z,25.48
2023-05-25T03:46:13.151Z,28.90
2023-05-25T03:48:40.593Z,36.63
2023-05-25T03:51:07.929Z,36.33
2023-05-25T03:53:35.357Z,31.08
2023-05-25T03:56:02.682Z,33.25
2023-05-25T03:58:31.338Z,33.83
2023-05-25T04:00:58.808Z,32.67
2023-05-25T04:03:27.638Z,35.13
2023-05-25T04:05:55.299Z,37.45
2023-05-25T04:08:23.810Z,31.83
2023-05-25T04:10:51.163Z,33.22
2023-05-25T04:13:18.517Z,28.48
2023-05-25T04:15:47.301Z,36.60
2023-05-25T04:18:15.059Z,32.78
2023-05-25T04:20:42.555Z,29.45
2023-05-25T04:23:09.925Z,28.92
2023-05-25T04:25:37.542Z,30.88
2023-05-25T04:28:05.114Z,26.98
2023-05-25T04:30:32.455Z,38.58
2023-05-25T04:33:03.059Z,35.55
2023-05-25T04:35:32.676Z,30.67
2023-05-25T04:38:02.653Z,27.90
2023-05-25T04:40:30.007Z,32.08
2023-05-25T04:42:57.310Z,25.15
2023-05-25T04:45:24.681Z,25.95
2023-05-25T04:47:52.512Z,29.08
2023-05-25T04:50:21.389Z,22.35
2023-05-25T04:52:48.729Z,26.08
2023-05-25T04:55:16.284Z,22.25
2023-05-25T04:57:43.585Z,19.98
2023-05-25T05:00:12.436Z,23.65
2023-05-25T05:02:39.794Z,19.65
2023-05-25T05:05:07.591Z,23.35
2023-05-25T05:07:37.118Z,16.00
2023-05-25T05:10:04.565Z,17.80
2023-05-25T05:12:31.924Z,16.70
2023-05-25T05:14:59.286Z,22.73
2023-05-25T05:17:27.992Z,23.40
2023-05-25T05:19:55.556Z,22.58
2023-05-25T05:22:22.910Z,21.33
2023-05-25T05:24:51.654Z,20.48
2023-05-25T05:27:20.638Z,19.63
2023-05-25T05:29:48.054Z,21.20
2023-05-25T05:32:15.401Z,18.17
2023-05-25T05:34:42.716Z,21.05
2023-05-25T05:37:10.476Z,18.73
2023-05-25T05:39:37.991Z,25.20
2023-05-25T05:42:08.050Z,21.00
2023-05-25T05:44:35.594Z,21.42
2023-05-25T05:47:03.178Z,18.30
2023-05-25T05:49:31.151Z,19.55
2023-05-25T05:51:58.631Z,23.10
2023-05-25T05:54:27.620Z,19.90
2023-05-25T05:56:54.980Z,25.00
2023-05-25T05:59:23.921Z,20.48
2023-05-25T06:01:51.270Z,23.60
2023-05-25T06:04:19.538Z,22.75
2023-05-25T06:06:46.920Z,21.50
2023-05-25T06:09:14.330Z,27.35
2023-05-25T06:11:41.832Z,20.63
2023-05-25T06:14:09.138Z,20.48
2023-05-25T06:16:38.003Z,19.15
2023-05-25T06:19:05.415Z,23.70
2023-05-25T06:21:32.839Z,21.17
2023-05-25T06:24:00.518Z,21.50
2023-05-25T06:26:28.029Z,24.48
2023-05-25T06:28:55.399Z,19.80
2023-05-25T06:31:22.821Z,16.17
2023-05-25T06:33:51.533Z,26.52
2023-05-25T06:36:18.875Z,19.77
2023-05-25T06:38:47.064Z,18.92
2023-05-25T06:41:15.329Z,21.92
2023-05-25T06:43:43.266Z,21.20
2023-05-25T06:46:11.043Z,23.27
2023-05-25T06:48:40.097Z,25.27
2023-05-25T06:51:08.753Z,17.23
2023-05-25T06:53:36.649Z,21.92
2023-05-25T06:56:04.033Z,19.30
2023-05-25T06:58:31.364Z,23.77
2023-05-25T07:01:00.276Z,21.20
2023-05-25T07:03:27.682Z,20.60
2023-05-25T07:05:55.093Z,19.42
2023-05-25T07:08:23.770Z,21.33
2023-05-25T07:10:51.272Z,23.15
2023-05-25T07:13:18.815Z,21.05
2023-05-25T07:15:47.229Z,21.33
2023-05-25T07:18:15.219Z,21.35
2023-05-25T07:20:43.719Z,26.90
2023-05-25T07:23:11.497Z,23.17
2023-05-25T07:25:40.579Z,24.02
2023-05-25T07:28:08.179Z,29.13
2023-05-25T07:30:35.594Z,24.48
2023-05-25T07:33:02.958Z,17.45
2023-05-25T07:35:30.291Z,23.27
2023-05-25T07:37:58.317Z,26.63
2023-05-25T07:40:25.663Z,17.40
2023-05-25T07:42:54.678Z,22.10
2023-05-25T07:45:22.419Z,23.25
2023-05-25T07:47:49.847Z,19.38
2023-05-25T07:50:17.425Z,25.02
2023-05-25T07:52:44.740Z,18.25
2023-05-25T07:55:12.212Z,18.55
2023-05-25T07:57:39.592Z,16.35
2023-05-25T08:00:09.043Z,21.42
2023-05-25T08:02:36.621Z,23.80
2023-05-25T08:05:06.250Z,21.55
2023-05-25T08:07:33.824Z,23.38
2023-05-25T08:10:02.783Z,18.90
2023-05-25T08:12:47.134Z,20.45
2023-05-25T08:15:17.979Z,25.45
2023-05-25T08:17:45.586Z,18.55
2023-05-25T08:20:13.278Z,19.15
2023-05-25T08:22:40.638Z,18.77
2023-05-25T08:25:08.379Z,17.45
2023-05-25T08:27:36.447Z,17.58
2023-05-25T08:30:05.637Z,21.35
2023-05-25T08:32:34.343Z,18.77
2023-05-25T08:35:01.876Z,20.85
2023-05-25T08:37:29.260Z,18.30
2023-05-25T08:39:56.659Z,23.63
2023-05-25T08:42:24.257Z,23.17
2023-05-25T08:44:51.576Z,21.38
2023-05-25T08:47:20.564Z,21.95
2023-05-25T08:49:50.069Z,21.90
2023-05-25T08:52:20.429Z,16.15
2023-05-25T08:54:48.863Z,18.60
2023-05-25T08:57:18.225Z,19.92
2023-05-25T08:59:47.891Z,20.42
2023-05-25T09:02:20.268Z,17.60
2023-05-25T09:04:48.983Z,17.38
2023-05-25T09:07:16.526Z,21.38
2023-05-25T09:09:44.409Z,22.55
2023-05-25T09:12:11.799Z,19.08
2023-05-25T09:14:45.322Z,16.92
2023-05-25T09:17:13.402Z,20.90
2023-05-25T09:19:41.009Z,12.90
2023-05-25T09:22:15.670Z,16.80
2023-05-25T09:24:44.650Z,13.90
2023-05-25T09:27:13.292Z,16.45
2023-05-25T09:29:40.654Z,17.50
2023-05-25T09:32:08.416Z,15.30
2023-05-25T09:34:38.387Z,14.75
2023-05-25T09:37:11.780Z,17.23
2023-05-25T09:39:41.048Z,16.52
2023-05-25T09:42:08.545Z,12.52
2023-05-25T09:44:35.887Z,14.70
2023-05-25T09:47:03.370Z,14.35
2023-05-25T09:49:30.716Z,12.38
2023-05-25T09:51:58.107Z,13.27
2023-05-25T09:54:26.301Z,11.52
2023-05-25T09:56:55.015Z,15.20
2023-05-25T09:59:22.893Z,16.85
2023-05-25T10:01:51.902Z,12.60
2023-05-25T10:04:19.325Z,12.45
2023-05-25T10:06:49.622Z,12.18
2023-05-25T10:09:18.620Z,16.23
2023-05-25T10:11:46.208Z,13.23
2023-05-25T10:14:16.124Z,15.75
2023-05-25T10:16:47.010Z,13.52
2023-05-25T10:19:18.129Z,15.00
2023-05-25T10:21:47.400Z,16.65
2023-05-25T10:24:19.776Z,13.63
2023-05-25T10:26:50.883Z,15.20
2023-05-25T10:29:19.794Z,19.92
2023-05-25T10:31:47.960Z,16.35
2023-05-25T10:34:17.031Z,11.68
2023-05-25T10:36:44.445Z,13.25
2023-05-25T10:39:12.469Z,13.98
2023-05-25T10:41:39.855Z,15.45
2023-05-25T10:44:07.330Z,13.80
2023-05-25T10:46:36.358Z,15.27
2023-05-25T10:49:03.962Z,11.85
2023-05-25T10:51:40.662Z,14.07
2023-05-25T10:54:08.157Z,15.05
2023-05-25T10:56:35.585Z,11.50
2023-05-25T10:59:02.958Z,11.55
2023-05-25T11:01:33.465Z,15.48
2023-05-25T11:04:17.030Z,16.10
2023-05-25T11:07:02.875Z,15.13
2023-05-25T11:09:31.676Z,13.75
2023-05-25T11:12:03.343Z,13.38
2023-05-25T11:14:31.556Z,13.80
2023-05-25T11:17:06.245Z,16.88
2023-05-25T11:22:13.550Z,13.95
2023-05-25T11:24:40.884Z,11.48
2023-05-25T11:27:09.074Z,13.18
2023-05-25T11:29:37.280Z,14.07
2023-05-25T11:32:04.849Z,13.75
2023-05-25T11:34:33.126Z,13.35
2023-05-25T11:37:04.660Z,13.48
2023-05-25T11:39:32.473Z,9.65
2023-05-25T11:42:03.767Z,11.57
2023-05-25T11:44:31.651Z,12.88
2023-05-25T11:47:01.734Z,12.68
2023-05-25T11:49:29.620Z,10.43
2023-05-25T11:51:57.794Z,9.65
2023-05-25T11:54:27.430Z,9.85
2023-05-25T11:56:57.292Z,8.95
2023-05-25T11:59:26.911Z,11.35
2023-05-25T12:01:59.271Z,9.18
2023-05-25T12:04:26.877Z,10.50
2023-05-25T12:06:57.252Z,12.55
2023-05-25T12:09:24.604Z,8.65
2023-05-25T12:11:53.305Z,9.45
2023-05-25T12:14:20.760Z,8.55
2023-05-25T12:16:48.257Z,9.90
2023-05-25T12:19:15.917Z,9.45
2023-05-25T12:21:43.460Z,10.80
2023-05-25T12:24:12.567Z,11.70
2023-05-25T12:26:47.873Z,9.25
2023-05-25T12:29:16.909Z,8.82
2023-05-25T12:31:44.764Z,10.30
2023-05-25T12:34:12.898Z,9.57
2023-05-25T12:36:40.953Z,14.20
2023-05-25T12:39:09.840Z,7.10
2023-05-25T12:41:58.038Z,9.00
2023-05-25T12:44:27.421Z,9.38
2023-05-25T12:46:55.464Z,8.10
2023-05-25T12:49:32.232Z,14.70
2023-05-25T12:52:00.325Z,9.60
2023-05-25T12:54:37.586Z,10.20
2023-05-25T12:57:06.507Z,11.57
2023-05-25T12:59:35.369Z,9.93
2023-05-25T13:02:02.816Z,10.45
2023-05-25T13:04:30.198Z,10.98
2023-05-25T13:06:57.592Z,11.43
2023-05-25T13:09:26.699Z,12.88
2023-05-25T13:11:55.548Z,10.50
2023-05-25T13:14:23.247Z,9.95
2023-05-25T13:16:52.139Z,11.35
2023-05-25T13:19:19.719Z,11.13
2023-05-25T13:21:49.075Z,12.68
2023-05-25T13:24:17.317Z,9.48
2023-05-25T13:26:45.385Z,11.27
2023-05-25T13:29:13.404Z,8.10
2023-05-25T13:31:40.784Z,11.68
2023-05-25T13:34:09.622Z,14.80
2023-05-25T13:36:36.993Z,7.70
2023-05-25T13:39:07.245Z,15.35
2023-05-25T13:41:34.581Z,15.13
2023-05-25T13:44:02.234Z,9.57
2023-05-25T13:46:34.772Z,10.73
2023-05-25T13:49:02.873Z,9.50
2023-05-25T13:51:31.592Z,14.13
2023-05-25T13:53:58.926Z,12.07
2023-05-25T13:56:27.293Z,13.65
2023-05-25T13:58:54.881Z,11.23
2023-05-25T14:01:22.301Z,11.98
2023-05-25T14:03:49.789Z,12.43
2023-05-25T14:06:17.277Z,10.43
2023-05-25T14:08:45.969Z,11.15
2023-05-25T14:11:13.318Z,12.13
2023-05-25T14:13:40.667Z,11.25
2023-05-25T14:16:08.073Z,11.88
2023-05-25T14:18:35.491Z,12.00
2023-05-25T14:21:02.847Z,11.45
2023-05-25T14:23:30.219Z,11.27
2023-05-25T14:25:58.904Z,11.38
2023-05-25T14:28:26.303Z,12.05
2023-05-25T14:30:53.752Z,10.23
2023-05-25T14:33:21.113Z,10.07
2023-05-25T14:35:48.489Z,11.15
2023-05-25T14:38:15.854Z,12.88
2023-05-25T14:40:43.197Z,10.85
2023-05-25T14:43:11.895Z,8.75
2023-05-25T14:45:39.267Z,11.85
2023-05-25T14:48:15.911Z,13.57
2023-05-25T14:50:44.948Z,12.93
2023-05-25T14:53:12.422Z,10.90
2023-05-25T14:55:40.878Z,13.95
2023-05-25T14:58:08.320Z,10.68
2023-05-25T15:00:37.050Z,12.50
2023-05-25T15:03:04.427Z,11.63
2023-05-25T15:05:31.830Z,14.32
2023-05-25T15:07:59.817Z,10.77
2023-05-25T15:10:27.138Z,10.45
2023-05-25T15:12:54.451Z,12.18
2023-05-25T15:15:21.786Z,13.35
2023-05-25T15:17:50.577Z,16.20
2023-05-25T15:20:17.958Z,13.15
2023-05-25T15:22:45.871Z,14.18
2023-05-25T15:25:16.935Z,8.32
2023-05-25T15:27:49.003Z,10.02
2023-05-25T15:30:16.727Z,13.13
2023-05-25T15:32:44.169Z,8.82
2023-05-25T15:35:12.899Z,13.30
2023-05-25T15:37:40.525Z,10.07
2023-05-25T15:40:08.483Z,12.73
2023-05-25T15:42:35.800Z,11.30
2023-05-25T15:45:03.117Z,13.02
2023-05-25T15:47:30.513Z,10.60
2023-05-25T15:49:57.904Z,10.68
2023-05-25T15:52:26.843Z,10.65
2023-05-25T15:54:54.177Z,10.60
2023-05-25T15:57:21.492Z,9.82
2023-05-25T15:59:48.898Z,8.05
2023-05-25T16:02:16.474Z,10.32
2023-05-25T16:04:43.906Z,10.43
2023-05-25T16:07:11.431Z,8.80
2023-05-25T16:09:40.102Z,7.00
2023-05-25T16:12:07.766Z,12.88
2023-05-25T16:14:35.106Z,10.18
2023-05-25T16:17:02.452Z,9.48
2023-05-25T16:19:29.783Z,9.77
2023-05-25T16:21:57.102Z,9.98
2023-05-25T16:24:26.827Z,9.40
2023-05-25T16:26:57.490Z,10.05
2023-05-25T16:29:24.842Z,11.55
2023-05-25T16:31:53.388Z,14.18
2023-05-25T16:34:23.664Z,9.20
2023-05-25T16:36:51.033Z,10.02
2023-05-25T16:39:18.613Z,12.43
2023-05-25T16:41:46.065Z,9.95
2023-05-25T16:44:15.360Z,9.52
2023-05-25T16:46:42.835Z,12.30
2023-05-25T16:49:10.254Z,10.93
2023-05-25T16:51:38.140Z,10.73
2023-05-25T16:54:05.562Z,11.23
2023-05-25T16:56:32.950Z,9.98
2023-05-25T16:59:00.298Z,13.68
2023-05-25T17:01:29.017Z,13.93
2023-05-25T17:03:56.475Z,9.48
2023-05-25T17:06:23.871Z,9.88
2023-05-25T17:08:51.267Z,11.18
2023-05-25T17:11:19.055Z,8.60
2023-05-25T17:13:46.446Z,12.13
2023-05-25T17:16:13.826Z,14.95
2023-05-25T17:18:42.625Z,9.75
2023-05-25T17:21:10.025Z,10.95
2023-05-25T17:23:37.372Z,10.48
2023-05-25T17:26:05.092Z,11.93
2023-05-25T17:28:32.904Z,10.38
2023-05-25T17:31:01.059Z,7.22
2023-05-25T17:33:28.463Z,11.15
2023-05-25T17:35:57.202Z,9.38
2023-05-25T17:38:25.180Z,11.52
2023-05-25T17:40:52.540Z,12.02
2023-05-25T17:43:19.930Z,8.13
2023-05-25T17:45:47.522Z,11.70
2023-05-25T17:48:15.066Z,10.30
2023-05-25T17:50:42.413Z,14.43
2023-05-25T17:53:11.560Z,11.52
2023-05-25T17:55:38.880Z,7.82
2023-05-25T17:58:06.280Z,11.55
2023-05-25T18:00:33.651Z,9.68
2023-05-25T18:03:01.240Z,8.50
2023-05-25T18:05:28.708Z,8.10
2023-05-25T18:07:56.059Z,10.15
2023-05-25T18:10:24.770Z,13.82
2023-05-25T18:12:52.321Z,12.52
2023-05-25T18:15:19.762Z,10.25
2023-05-25T18:17:47.213Z,11.73
2023-05-25T18:20:14.659Z,9.10
2023-05-25T18:22:42.217Z,8.85
2023-05-25T18:25:10.022Z,10.45
2023-05-25T18:27:38.730Z,10.63
2023-05-25T18:30:06.659Z,11.05
2023-05-25T18:32:34.042Z,10.10
2023-05-25T18:35:01.480Z,11.43
2023-05-25T18:37:29.711Z,12.30
2023-05-25T18:39:57.089Z,9.10
2023-05-25T18:42:24.459Z,10.77
2023-05-25T18:44:53.226Z,10.88
2023-05-25T18:47:20.681Z,9.63
2023-05-25T18:49:48.261Z,11.52
2023-05-25T18:52:15.629Z,12.48
2023-05-25T18:54:42.991Z,9.48
2023-05-25T18:57:10.427Z,12.88
2023-05-25T18:59:37.800Z,14.80
2023-05-25T19:02:06.730Z,7.35
2023-05-25T19:04:34.296Z,10.88
2023-05-25T19:07:01.702Z,9.55
2023-05-25T19:09:29.460Z,9.43
2023-05-25T19:11:56.793Z,8.55
2023-05-25T19:14:24.165Z,12.57
2023-05-25T19:16:51.607Z,13.50
2023-05-25T19:19:20.371Z,13.85
2023-05-25T19:21:47.711Z,9.68
2023-05-25T19:24:15.067Z,11.65
2023-05-25T19:26:42.386Z,12.43
2023-05-25T19:29:09.727Z,11.88
2023-05-25T19:31:37.114Z,12.75
2023-05-25T19:34:04.467Z,13.07
2023-05-25T19:36:33.372Z,10.35
2023-05-25T19:39:00.754Z,11.43
2023-05-25T19:41:28.126Z,8.32
2023-05-25T19:43:55.467Z,13.27
2023-05-25T19:46:22.930Z,11.00
2023-05-25T19:48:50.582Z,9.02
2023-05-25T19:51:18.479Z,9.88
2023-05-25T19:53:48.918Z,11.20
2023-05-25T19:56:16.338Z,10.95
2023-05-25T19:58:43.748Z,12.15
2023-05-25T20:01:11.177Z,17.63
2023-05-25T20:03:38.604Z,11.55
2023-05-25T20:06:06.046Z,12.50
2023-05-25T20:08:33.447Z,10.40
2023-05-25T20:11:02.196Z,10.52
2023-05-25T20:13:29.636Z,11.80
2023-05-25T20:15:57.142Z,15.27
2023-05-25T20:18:24.711Z,14.15
2023-05-25T20:20:52.043Z,11.98
2023-05-25T20:23:19.651Z,8.77
2023-05-25T20:25:47.304Z,10.95
2023-05-25T20:28:18.538Z,14.25
2023-05-25T20:30:45.984Z,10.38
2023-05-25T20:33:13.558Z,11.90
2023-05-25T20:35:41.096Z,12.85
2023-05-25T20:38:08.759Z,9.98
2023-05-25T20:40:36.086Z,16.80
2023-05-25T20:43:03.503Z,12.80
2023-05-25T20:45:32.218Z,11.98
2023-05-25T20:48:00.172Z,13.85
2023-05-25T20:50:27.677Z,15.45
2023-05-25T20:52:55.455Z,11.63
2023-05-25T20:55:23.008Z,13.70
2023-05-25T20:57:50.776Z,15.85
2023-05-25T21:00:18.517Z,13.15
2023-05-25T21:02:47.366Z,14.05
2023-05-25T21:05:15.036Z,12.55
2023-05-25T21:07:42.455Z,10.80
2023-05-25T21:10:10.358Z,14.35
2023-05-25T21:12:37.771Z,13.65
2023-05-25T21:15:05.684Z,11.63
2023-05-25T21:17:33.068Z,14.63
2023-05-25T21:20:02.026Z,12.57
2023-05-25T21:22:29.399Z,10.68
2023-05-25T21:24:56.776Z,11.75
2023-05-25T21:27:24.194Z,13.70
2023-05-25T21:29:54.381Z,12.43
2023-05-25T21:32:21.771Z,13.80
2023-05-25T21:34:49.237Z,15.70
2023-05-25T21:37:18.136Z,17.13
2023-05-25T21:39:45.910Z,10.77
2023-05-25T21:42:13.302Z,11.95
2023-05-25T21:44:40.648Z,12.55
2023-05-25T21:47:08.167Z,15.40
2023-05-25T21:49:35.634Z,20.25
2023-05-25T21:52:03.051Z,14.38
2023-05-25T21:54:31.810Z,10.52
2023-05-25T21:56:59.172Z,11.85
2023-05-25T21:59:26.529Z,12.73
2023-05-25T22:01:54.474Z,10.25
2023-05-25T22:04:21.914Z,11.63
2023-05-25T22:06:49.317Z,12.40
2023-05-25T22:09:16.823Z,12.90
2023-05-25T22:11:45.586Z,17.90
2023-05-25T22:14:12.977Z,11.55
2023-05-25T22:16:40.337Z,14.48
2023-05-25T22:19:07.833Z,15.18
2023-05-25T22:21:35.248Z,13.05
2023-05-25T22:24:02.569Z,11.00
2023-05-25T22:26:29.943Z,16.35
2023-05-25T22:28:58.688Z,15.02
2023-05-25T22:31:26.718Z,10.52
2023-05-25T22:33:54.188Z,12.85
2023-05-25T22:36:21.630Z,13.73
2023-05-25T22:38:49.070Z,13.57
2023-05-25T22:41:16.386Z,14.60
2023-05-25T22:43:43.717Z,12.55
2023-05-25T22:46:12.457Z,13.65
2023-05-25T22:48:40.248Z,15.77
2023-05-25T22:51:07.583Z,11.73
2023-05-25T22:53:34.961Z,12.05
2023-05-25T22:56:02.301Z,14.70
2023-05-25T22:58:29.628Z,13.10
2023-05-25T23:00:57.220Z,16.10
2023-05-25T23:03:26.002Z,16.73
2023-05-25T23:05:53.435Z,17.30
2023-05-25T23:08:20.817Z,16.77
2023-05-25T23:10:48.170Z,14.60
2023-05-25T23:13:16.570Z,12.43
2023-05-25T23:15:44.120Z,13.45
2023-05-25T23:18:11.803Z,15.93
2023-05-25T23:20:40.989Z,17.60
2023-05-25T23:23:08.370Z,17.88
2023-05-25T23:25:35.742Z,14.55
2023-05-25T23:28:03.129Z,21.02
2023-05-25T23:30:30.538Z,15.98
2023-05-25T23:32:57.965Z,15.32
2023-05-25T23:35:25.624Z,17.25
2023-05-25T23:37:54.620Z,20.65
2023-05-25T23:40:21.944Z,19.65
2023-05-25T23:42:49.348Z,20.77
2023-05-25T23:45:19.433Z,26.42
2023-05-25T23:47:46.796Z,26.60
2023-05-25T23:50:14.200Z,25.20
2023-05-25T23:52:41.617Z,21.40
2023-05-25T23:55:10.609Z,27.30
2023-05-25T23:57:37.958Z,29.67
